Time;durP1;ratioP1;P1;durP2;ratioP2;P2;SDS_P1;SDS_P2;PMS_P1;PMS_P2;Temp;Humidity;BMP_temperature;BMP_pressure;BME280_temperature;BME280_humidity;BME280_pressure;Samples;Min_cycle;Max_cycle;Signal;HPM_P1;HPM_P2
2023/12/28 00:00:02;;;;;;;2.47;1.70;;;;;;;;;;5060397;28;43251;-76
2023/12/28 00:02:30;;;;;;;4.25;1.77;;;;;;;;;;5064888;28;42611;-75
2023/12/28 00:04:58;;;;;;;5.10;2.47;;;;;;;;;;5065105;28;41540;-74
2023/12/28 00:07:26;;;;;;;4.38;2.20;;;;;;;;;;5076120;28;43717;-75
2023/12/28 00:09:54;;;;;;;4.05;2.20;;;;;;;;;;5067105;28;42356;-75
2023/12/28 00:12:23;;;;;;;4.68;1.85;;;;;;;;;;5065977;28;41583;-74
2023/12/28 00:14:52;;;;;;;2.42;1.63;;;;;;;;;;5067846;28;41343;-74
2023/12/28 00:17:20;;;;;;;2.97;1.88;;;;;;;;;;5068718;28;41967;-76
2023/12/28 00:19:48;;;;;;;2.97;1.70;;;;;;;;;;5067341;28;42189;-75
2023/12/28 00:22:17;;;;;;;3.83;1.80;;;;;;;;;;5055691;28;41098;-72
2023/12/28 00:24:44;;;;;;;3.17;1.58;;;;;;;;;;5064234;28;41582;-73
2023/12/28 00:27:12;;;;;;;4.00;2.10;;;;;;;;;;5061438;28;43238;-75
2023/12/28 00:29:41;;;;;;;3.05;1.75;;;;;;;;;;5068770;28;41330;-74
2023/12/28 00:32:10;;;;;;;3.22;2.15;;;;;;;;;;5062830;28;42001;-75
2023/12/28 00:34:39;;;;;;;3.80;2.25;;;;;;;;;;5058829;28;41333;-74
2023/12/28 00:37:07;;;;;;;1.70;1.50;;;;;;;;;;5051899;28;40203;-75
2023/12/28 00:39:35;;;;;;;2.35;1.70;;;;;;;;;;5063235;28;43193;-75
2023/12/28 00:42:04;;;;;;;3.50;1.90;;;;;;;;;;5066222;28;40886;-74
2023/12/28 00:44:33;;;;;;;2.47;2.08;;;;;;;;;;5046816;28;40234;-74
2023/12/28 00:47:01;;;;;;;2.78;2.03;;;;;;;;;;5062176;28;41843;-75
2023/12/28 00:49:30;;;;;;;2.92;2.10;;;;;;;;;;5062568;28;42765;-75
2023/12/28 00:51:58;;;;;;;2.70;1.73;;;;;;;;;;5058923;28;41189;-75
2023/12/28 00:54:26;;;;;;;3.40;2.08;;;;;;;;;;5062494;28;41527;-74
2023/12/28 00:56:54;;;;;;;2.55;2.00;;;;;;;;;;5055763;28;41224;-73
2023/12/28 00:59:22;;;;;;;2.10;1.80;;;;;;;;;;5067564;28;42853;-73
2023/12/28 01:01:50;;;;;;;3.38;2.00;;;;;;;;;;5065367;28;41404;-74
2023/12/28 01:04:18;;;;;;;4.97;1.83;;;;;;;;;;5047600;28;40292;-75
2023/12/28 01:06:49;;;;;;;4.32;2.22;;;;;;;;;;5066296;28;43058;-75
2023/12/28 01:09:17;;;;;;;2.40;1.83;;;;;;;;;;5048655;28;40724;-74
2023/12/28 01:11:45;;;;;;;3.40;1.60;;;;;;;;;;5067564;28;41777;-74
2023/12/28 01:14:13;;;;;;;2.63;1.65;;;;;;;;;;5049851;28;41489;-76
2023/12/28 01:16:43;;;;;;;3.03;1.70;;;;;;;;;;5057163;28;42196;-74
2023/12/28 01:19:11;;;;;;;2.85;1.58;;;;;;;;;;5046714;28;40206;-77
2023/12/28 01:21:40;;;;;;;4.38;1.80;;;;;;;;;;5066060;28;42365;-73
2023/12/28 01:24:09;;;;;;;2.03;1.67;;;;;;;;;;5064869;28;42629;-73
2023/12/28 01:26:37;;;;;;;3.65;1.80;;;;;;;;;;5049108;28;40320;-73
2023/12/28 01:29:05;;;;;;;1.98;1.50;;;;;;;;;;5065124;28;41692;-73
2023/12/28 01:31:33;;;;;;;2.47;1.75;;;;;;;;;;5065635;28;41294;-73
2023/12/28 01:34:01;;;;;;;2.30;1.73;;;;;;;;;;5040797;28;40557;-73
2023/12/28 01:36:30;;;;;;;2.35;1.75;;;;;;;;;;5066632;28;41574;-73
2023/12/28 01:39:00;;;;;;;3.72;1.90;;;;;;;;;;5049072;28;41446;-74
2023/12/28 01:41:29;;;;;;;3.15;2.20;;;;;;;;;;5042608;28;40423;-73
2023/12/28 01:43:57;;;;;;;2.38;1.88;;;;;;;;;;5068246;28;42665;-73
2023/12/28 01:46:25;;;;;;;2.05;1.52;;;;;;;;;;5076697;28;42703;-73
2023/12/28 01:48:53;;;;;;;2.78;1.95;;;;;;;;;;5043932;28;39995;-73
2023/12/28 01:51:21;;;;;;;3.55;1.50;;;;;;;;;;5057101;28;41818;-73
2023/12/28 01:53:49;;;;;;;2.40;1.63;;;;;;;;;;5063524;28;42059;-73
2023/12/28 01:56:17;;;;;;;1.95;1.55;;;;;;;;;;5034149;28;41597;-73
2023/12/28 01:58:47;;;;;;;3.80;2.17;;;;;;;;;;5041574;28;40752;-73
2023/12/28 02:01:15;;;;;;;3.30;1.90;;;;;;;;;;5042819;28;39932;-73
2023/12/28 02:03:43;;;;;;;3.15;1.92;;;;;;;;;;5053077;28;41664;-73
2023/12/28 02:06:11;;;;;;;2.30;1.70;;;;;;;;;;5036834;28;40803;-73
2023/12/28 02:08:39;;;;;;;2.35;1.67;;;;;;;;;;5046633;28;40651;-73
2023/12/28 02:11:07;;;;;;;2.53;2.13;;;;;;;;;;5045984;28;40902;-73
2023/12/28 02:13:36;;;;;;;3.28;1.90;;;;;;;;;;5043575;28;40649;-73
2023/12/28 02:16:10;;;;;;;2.65;1.80;;;;;;;;;;5039529;28;41010;-73
2023/12/28 02:18:39;;;;;;;2.22;1.90;;;;;;;;;;5048137;28;41386;-73
2023/12/28 02:21:07;;;;;;;1.67;1.38;;;;;;;;;;5049281;28;41208;-73
2023/12/28 02:23:35;;;;;;;2.58;1.80;;;;;;;;;;5052399;28;40284;-73
2023/12/28 02:26:05;;;;;;;2.20;1.77;;;;;;;;;;5043386;28;41721;-73
2023/12/28 02:28:33;;;;;;;2.55;1.98;;;;;;;;;;5052608;28;40010;-73
2023/12/28 02:31:01;;;;;;;2.17;1.58;;;;;;;;;;5045314;28;41388;-73
2023/12/28 02:33:30;;;;;;;1.88;1.48;;;;;;;;;;5064169;28;41767;-73
2023/12/28 02:35:58;;;;;;;3.33;1.85;;;;;;;;;;5045793;28;39880;-73
2023/12/28 02:38:27;;;;;;;3.08;1.92;;;;;;;;;;5052877;28;42244;-73
2023/12/28 02:40:55;;;;;;;2.00;1.55;;;;;;;;;;5079370;28;42702;-73
2023/12/28 02:43:24;;;;;;;2.17;1.60;;;;;;;;;;5046577;28;40271;-73
2023/12/28 02:45:52;;;;;;;2.70;1.63;;;;;;;;;;5074144;28;41816;-73
2023/12/28 02:48:20;;;;;;;2.80;1.73;;;;;;;;;;5065180;28;40088;-72
2023/12/28 02:50:48;;;;;;;3.30;1.63;;;;;;;;;;5067417;28;41786;-73
2023/12/28 02:53:16;;;;;;;1.92;1.63;;;;;;;;;;5033942;28;40554;-73
2023/12/28 02:55:44;;;;;;;2.20;1.65;;;;;;;;;;5048535;28;39648;-73
2023/12/28 02:58:13;;;;;;;2.30;1.50;;;;;;;;;;5064243;28;41352;-73
2023/12/28 03:00:44;;;;;;;2.38;1.40;;;;;;;;;;5049134;28;41960;-73
2023/12/28 03:03:12;;;;;;;3.47;1.90;;;;;;;;;;5058069;28;40955;-73
2023/12/28 03:05:41;;;;;;;2.85;1.90;;;;;;;;;;5065710;28;43175;-73
2023/12/28 03:08:09;;;;;;;2.20;1.70;;;;;;;;;;5074299;28;41326;-73
2023/12/28 03:10:37;;;;;;;2.63;1.70;;;;;;;;;;5064845;28;42615;-73
2023/12/28 03:13:05;;;;;;;3.05;1.65;;;;;;;;;;5065930;28;42019;-73
2023/12/28 03:15:33;;;;;;;2.70;1.40;;;;;;;;;;5077806;28;40806;-73
2023/12/28 03:18:03;;;;;;;2.95;1.92;;;;;;;;;;5060419;28;42338;-72
2023/12/28 03:20:31;;;;;;;1.92;1.40;;;;;;;;;;5051831;28;43537;-73
2023/12/28 03:22:59;;;;;;;1.80;1.50;;;;;;;;;;5031132;28;40520;-73
2023/12/28 03:25:27;;;;;;;4.45;2.03;;;;;;;;;;5040191;28;40163;-72
2023/12/28 03:27:55;;;;;;;4.00;1.98;;;;;;;;;;5052006;28;41898;-73
2023/12/28 03:30:24;;;;;;;2.45;1.42;;;;;;;;;;5057129;28;42061;-73
2023/12/28 03:32:52;;;;;;;2.28;1.75;;;;;;;;;;5038210;28;40414;-73
2023/12/28 03:35:21;;;;;;;3.05;1.60;;;;;;;;;;5062993;28;42430;-72
2023/12/28 03:37:49;;;;;;;3.10;1.65;;;;;;;;;;5032686;28;41102;-73
2023/12/28 03:40:18;;;;;;;2.10;1.55;;;;;;;;;;5037935;28;41576;-73
2023/12/28 03:42:47;;;;;;;3.20;1.48;;;;;;;;;;5063535;28;41134;-73
2023/12/28 03:45:15;;;;;;;2.53;1.58;;;;;;;;;;5069503;28;41785;-73
2023/12/28 03:47:43;;;;;;;3.00;1.40;;;;;;;;;;5069521;28;32700;-73
2023/12/28 03:50:11;;;;;;;2.83;1.80;;;;;;;;;;5063687;28;41136;-73
2023/12/28 03:52:41;;;;;;;2.13;1.60;;;;;;;;;;5049717;28;40264;-73
2023/12/28 03:55:09;;;;;;;2.63;1.55;;;;;;;;;;5067990;28;42418;-73
2023/12/28 03:57:37;;;;;;;1.98;1.55;;;;;;;;;;5069986;28;41591;-73
2023/12/28 04:00:05;;;;;;;2.28;1.50;;;;;;;;;;5068691;28;41601;-73
2023/12/28 04:02:39;;;;;;;4.57;1.50;;;;;;;;;;5066491;28;41929;-73
2023/12/28 04:05:07;;;;;;;5.32;1.40;;;;;;;;;;5083114;28;42721;-73
2023/12/28 04:07:35;;;;;;;2.17;1.30;;;;;;;;;;5056688;28;41598;-73
2023/12/28 04:10:05;;;;;;;3.08;1.48;;;;;;;;;;5068482;28;42461;-73
2023/12/28 04:12:33;;;;;;;1.77;1.38;;;;;;;;;;5061316;28;41995;-73
2023/12/28 04:15:02;;;;;;;3.03;1.60;;;;;;;;;;5063723;28;40033;-73
2023/12/28 04:17:30;;;;;;;2.88;1.35;;;;;;;;;;5074104;28;41348;-73
2023/12/28 04:19:58;;;;;;;2.13;1.42;;;;;;;;;;5069159;28;43160;-72
2023/12/28 04:22:28;;;;;;;2.55;1.55;;;;;;;;;;5033838;28;40564;-73
2023/12/28 04:24:56;;;;;;;3.60;1.70;;;;;;;;;;5041486;28;41530;-73
2023/12/28 04:27:25;;;;;;;2.45;1.33;;;;;;;;;;5038238;28;40591;-73
2023/12/28 04:29:53;;;;;;;4.03;1.83;;;;;;;;;;5056048;28;40023;-73
2023/12/28 04:32:23;;;;;;;2.40;1.45;;;;;;;;;;5066347;28;41467;-73
2023/12/28 04:34:51;;;;;;;3.22;1.40;;;;;;;;;;5056595;28;41977;-74
2023/12/28 04:37:19;;;;;;;3.47;1.58;;;;;;;;;;5050823;28;40845;-73
2023/12/28 04:39:47;;;;;;;2.45;1.55;;;;;;;;;;5032142;28;41390;-73
2023/12/28 04:42:15;;;;;;;2.30;1.20;;;;;;;;;;5061150;28;40493;-73
2023/12/28 04:44:45;;;;;;;4.10;1.48;;;;;;;;;;5041486;28;40932;-73
2023/12/28 04:47:14;;;;;;;3.38;1.80;;;;;;;;;;5061136;28;41893;-73
2023/12/28 04:49:41;;;;;;;3.85;1.60;;;;;;;;;;5040231;28;39845;-73
2023/12/28 04:52:10;;;;;;;4.75;2.03;;;;;;;;;;5044926;28;41036;-73
2023/12/28 04:54:40;;;;;;;2.17;1.13;;;;;;;;;;5051515;28;40989;-73
2023/12/28 04:57:09;;;;;;;2.95;1.30;;;;;;;;;;5055151;28;41344;-73
2023/12/28 04:59:38;;;;;;;2.10;1.25;;;;;;;;;;5056172;28;41730;-73
2023/12/28 05:02:08;;;;;;;1.60;1.20;;;;;;;;;;5062060;28;41376;-73
2023/12/28 05:04:37;;;;;;;2.58;1.25;;;;;;;;;;5067202;28;41669;-73
2023/12/28 05:07:05;;;;;;;4.43;1.45;;;;;;;;;;5052475;28;43307;-73
2023/12/28 05:09:33;;;;;;;2.85;1.23;;;;;;;;;;5046920;28;40545;-73
2023/12/28 05:12:02;;;;;;;3.90;1.52;;;;;;;;;;5040408;28;40230;-73
2023/12/28 05:14:30;;;;;;;4.80;1.77;;;;;;;;;;5040969;28;42081;-73
2023/12/28 05:16:58;;;;;;;2.70;1.00;;;;;;;;;;5057577;28;41277;-73
2023/12/28 05:19:28;;;;;;;5.07;1.65;;;;;;;;;;5063895;28;41644;-73
2023/12/28 05:21:56;;;;;;;3.30;1.40;;;;;;;;;;5066501;28;41466;-73
2023/12/28 05:24:24;;;;;;;3.45;1.73;;;;;;;;;;5070579;28;42652;-73
2023/12/28 05:26:52;;;;;;;4.32;1.60;;;;;;;;;;5057959;28;43128;-73
2023/12/28 05:29:20;;;;;;;2.72;1.40;;;;;;;;;;5068557;28;41829;-73
2023/12/28 05:31:48;;;;;;;5.18;1.55;;;;;;;;;;5063393;28;41890;-73
2023/12/28 05:34:16;;;;;;;3.53;1.38;;;;;;;;;;5060097;28;41760;-73
2023/12/28 05:36:46;;;;;;;4.90;1.60;;;;;;;;;;5062631;28;41335;-73
2023/12/28 05:39:14;;;;;;;3.92;1.35;;;;;;;;;;5062713;28;42927;-73
2023/12/28 05:41:42;;;;;;;3.38;1.45;;;;;;;;;;5068298;28;41476;-73
2023/12/28 05:44:10;;;;;;;6.50;2.13;;;;;;;;;;5067414;28;41947;-73
2023/12/28 05:46:38;;;;;;;10.52;2.33;;;;;;;;;;5065697;28;41602;-73
2023/12/28 05:49:06;;;;;;;3.58;1.10;;;;;;;;;;5065175;28;41531;-73
2023/12/28 05:51:38;;;;;;;3.38;1.50;;;;;;;;;;5065785;28;42643;-73
2023/12/28 05:54:07;;;;;;;5.20;1.65;;;;;;;;;;5056293;28;41654;-73
2023/12/28 05:56:36;;;;;;;6.63;2.03;;;;;;;;;;5066165;28;42355;-73
2023/12/28 05:59:04;;;;;;;4.18;1.85;;;;;;;;;;5066516;28;41905;-73
2023/12/28 06:01:32;;;;;;;4.28;1.67;;;;;;;;;;5065535;28;41961;-73
2023/12/28 06:04:00;;;;;;;6.32;1.95;;;;;;;;;;5060599;28;41440;-73
2023/12/28 06:06:29;;;;;;;5.55;1.83;;;;;;;;;;5057068;28;42228;-73
2023/12/28 06:08:57;;;;;;;10.90;2.05;;;;;;;;;;5051508;28;40820;-73
2023/12/28 06:11:26;;;;;;;2.40;1.30;;;;;;;;;;5058632;28;41983;-73
2023/12/28 06:13:54;;;;;;;6.55;2.17;;;;;;;;;;5064012;28;41976;-73
2023/12/28 06:16:22;;;;;;;7.43;1.73;;;;;;;;;;5066483;28;41266;-73
2023/12/28 06:18:50;;;;;;;3.47;1.52;;;;;;;;;;5066685;28;41791;-73
2023/12/28 06:21:19;;;;;;;4.53;1.63;;;;;;;;;;5067059;28;41253;-73
2023/12/28 06:23:46;;;;;;;6.53;1.70;;;;;;;;;;5065680;28;41499;-73
2023/12/28 06:26:14;;;;;;;5.72;1.90;;;;;;;;;;5061903;28;41730;-71
2023/12/28 06:28:44;;;;;;;6.20;1.85;;;;;;;;;;5055122;28;41981;-70
2023/12/28 06:31:12;;;;;;;8.65;2.28;;;;;;;;;;5059817;28;42688;-70
2023/12/28 06:33:40;;;;;;;3.25;1.52;;;;;;;;;;5056081;28;43127;-71
2023/12/28 06:36:09;;;;;;;4.57;1.42;;;;;;;;;;5058561;28;42579;-71
2023/12/28 06:38:37;;;;;;;4.63;1.73;;;;;;;;;;5053907;28;41243;-70
2023/12/28 06:41:10;;;;;;;6.25;1.58;;;;;;;;;;5065247;28;41703;-71
2023/12/28 06:43:38;;;;;;;2.35;1.00;;;;;;;;;;5046896;28;42697;-70
2023/12/28 06:46:07;;;;;;;6.70;1.88;;;;;;;;;;5065722;28;43078;-70
2023/12/28 06:48:35;;;;;;;6.55;2.03;;;;;;;;;;5046880;28;42344;-71
2023/12/28 06:51:04;;;;;;;6.68;1.83;;;;;;;;;;5058842;28;42742;-71
2023/12/28 06:53:32;;;;;;;4.75;1.60;;;;;;;;;;5063817;28;43266;-70
2023/12/28 06:56:00;;;;;;;4.88;1.67;;;;;;;;;;5061305;28;41091;-70
2023/12/28 06:58:28;;;;;;;6.35;1.92;;;;;;;;;;5065744;28;41471;-70
2023/12/28 07:00:57;;;;;;;7.43;2.50;;;;;;;;;;5065628;28;42656;-71
2023/12/28 07:03:30;;;;;;;4.47;1.75;;;;;;;;;;5061040;28;41815;-71
2023/12/28 07:05:58;;;;;;;5.35;1.95;;;;;;;;;;5063266;28;42037;-71
2023/12/28 07:08:26;;;;;;;7.10;2.47;;;;;;;;;;5061816;28;41178;-70
2023/12/28 07:10:54;;;;;;;11.48;2.35;;;;;;;;;;5055071;28;41421;-70
2023/12/28 07:13:22;;;;;;;6.82;1.60;;;;;;;;;;5040346;28;40494;-71
2023/12/28 07:15:50;;;;;;;6.03;1.85;;;;;;;;;;5064993;28;40882;-71
2023/12/28 07:18:18;;;;;;;3.83;1.67;;;;;;;;;;5062250;28;41920;-71
2023/12/28 07:20:48;;;;;;;6.00;1.70;;;;;;;;;;5065895;28;43164;-70
2023/12/28 07:23:16;;;;;;;7.13;1.75;;;;;;;;;;5075749;28;41955;-71
2023/12/28 07:25:44;;;;;;;5.47;1.83;;;;;;;;;;5052857;28;41287;-70
2023/12/28 07:28:12;;;;;;;6.57;2.10;;;;;;;;;;5066722;28;42004;-71
2023/12/28 07:30:41;;;;;;;7.20;2.15;;;;;;;;;;5065024;28;41809;-71
2023/12/28 07:33:09;;;;;;;6.32;2.08;;;;;;;;;;5060339;28;42319;-71
2023/12/28 07:35:37;;;;;;;5.78;1.88;;;;;;;;;;5060757;28;41341;-70
2023/12/28 07:38:06;;;;;;;7.75;2.25;;;;;;;;;;5063442;28;42407;-71
2023/12/28 07:40:34;;;;;;;6.38;2.00;;;;;;;;;;5054445;28;42738;-70
2023/12/28 07:43:03;;;;;;;6.03;2.28;;;;;;;;;;5062331;28;42118;-71
2023/12/28 07:45:31;;;;;;;7.65;1.92;;;;;;;;;;5066977;28;41717;-71
2023/12/28 07:48:00;;;;;;;5.75;2.00;;;;;;;;;;5065400;28;43163;-69
2023/12/28 07:50:28;;;;;;;6.63;1.95;;;;;;;;;;5065921;28;42337;-70
2023/12/28 07:52:56;;;;;;;14.20;2.50;;;;;;;;;;5054069;28;42980;-69
2023/12/28 07:55:26;;;;;;;7.03;1.73;;;;;;;;;;5061390;28;42296;-70
2023/12/28 07:57:54;;;;;;;5.63;1.63;;;;;;;;;;5062264;28;42178;-70
2023/12/28 08:00:22;;;;;;;4.40;1.45;;;;;;;;;;5064459;28;42068;-70
2023/12/28 08:02:50;;;;;;;6.47;1.52;;;;;;;;;;5065258;28;41210;-70
2023/12/28 08:05:18;;;;;;;7.28;2.22;;;;;;;;;;5051066;28;42417;-70
2023/12/28 08:07:46;;;;;;;7.93;2.03;;;;;;;;;;5059011;28;41975;-70
2023/12/28 08:10:14;;;;;;;5.65;2.00;;;;;;;;;;5053607;28;42744;-70
2023/12/28 08:12:43;;;;;;;3.63;1.50;;;;;;;;;;5045592;28;41717;-70
2023/12/28 08:15:11;;;;;;;7.00;1.60;;;;;;;;;;5062237;28;40854;-71
2023/12/28 08:17:39;;;;;;;12.82;2.35;;;;;;;;;;5062939;28;41312;-70
2023/12/28 08:20:08;;;;;;;6.97;1.80;;;;;;;;;;5061140;28;42822;-70
2023/12/28 08:22:36;;;;;;;9.50;2.47;;;;;;;;;;5067685;28;41825;-71
2023/12/28 08:25:04;;;;;;;8.40;2.25;;;;;;;;;;5066145;28;41209;-70
2023/12/28 08:27:32;;;;;;;12.35;2.20;;;;;;;;;;5064279;28;41592;-70
2023/12/28 08:30:01;;;;;;;5.50;1.95;;;;;;;;;;5058637;28;41864;-70
2023/12/28 08:32:30;;;;;;;9.07;2.13;;;;;;;;;;5069073;28;42956;-71
2023/12/28 08:34:58;;;;;;;3.72;1.95;;;;;;;;;;5069318;28;40695;-71
2023/12/28 08:37:26;;;;;;;6.57;2.20;;;;;;;;;;5068731;28;41414;-72
2023/12/28 08:39:55;;;;;;;12.00;2.53;;;;;;;;;;5082579;28;41662;-71
2023/12/28 08:42:24;;;;;;;4.18;1.40;;;;;;;;;;5069392;28;41590;-71
2023/12/28 08:44:52;;;;;;;6.55;2.05;;;;;;;;;;5075300;28;42178;-71
2023/12/28 08:47:22;;;;;;;11.90;2.30;;;;;;;;;;5062541;28;42092;-71
2023/12/28 08:49:50;;;;;;;5.43;1.52;;;;;;;;;;5067630;28;40929;-71
2023/12/28 08:52:19;;;;;;;6.88;1.88;;;;;;;;;;5076915;28;42397;-70
2023/12/28 08:54:47;;;;;;;4.93;1.60;;;;;;;;;;5068561;28;41368;-70
2023/12/28 08:57:15;;;;;;;7.95;2.13;;;;;;;;;;5068138;28;41489;-68
2023/12/28 08:59:49;;;;;;;6.25;1.70;;;;;;;;;;5080662;28;42151;-68
2023/12/28 09:02:17;;;;;;;7.47;1.63;;;;;;;;;;5068464;28;40858;-68
2023/12/28 09:04:47;;;;;;;10.63;2.03;;;;;;;;;;5067815;28;41664;-68
2023/12/28 09:07:16;;;;;;;6.47;1.60;;;;;;;;;;5062384;28;42035;-68
2023/12/28 09:09:44;;;;;;;8.05;2.38;;;;;;;;;;5068559;28;41104;-68
2023/12/28 09:12:12;;;;;;;7.90;2.28;;;;;;;;;;5066486;28;41674;-69
2023/12/28 09:14:40;;;;;;;7.03;2.03;;;;;;;;;;5061318;28;43273;-71
2023/12/28 09:17:08;;;;;;;8.35;2.03;;;;;;;;;;5067084;28;42714;-69
2023/12/28 09:19:36;;;;;;;10.85;2.88;;;;;;;;;;5061044;28;41879;-70
2023/12/28 09:22:05;;;;;;;7.40;2.10;;;;;;;;;;5058185;28;40862;-70
2023/12/28 09:24:33;;;;;;;11.88;2.08;;;;;;;;;;5060925;28;42495;-70
2023/12/28 09:27:02;;;;;;;7.88;2.03;;;;;;;;;;5061260;28;42395;-69
2023/12/28 09:29:29;;;;;;;6.95;2.08;;;;;;;;;;5061129;28;40842;-69
2023/12/28 09:31:57;;;;;;;8.52;1.95;;;;;;;;;;5054059;28;41234;-68
2023/12/28 09:34:25;;;;;;;13.00;2.92;;;;;;;;;;5064544;28;41515;-68
2023/12/28 09:36:53;;;;;;;10.35;3.28;;;;;;;;;;5060003;28;41527;-70
2023/12/28 09:39:23;;;;;;;8.43;2.20;;;;;;;;;;5065733;28;42151;-69
2023/12/28 09:41:55;;;;;;;13.60;2.53;;;;;;;;;;5065253;28;43892;-69
2023/12/28 09:44:24;;;;;;;5.88;2.28;;;;;;;;;;5063738;28;42685;-69
2023/12/28 09:46:55;;;;;;;10.80;2.65;;;;;;;;;;5066206;28;42612;-70
2023/12/28 09:49:23;;;;;;;10.65;3.05;;;;;;;;;;5049209;28;41108;-69
2023/12/28 09:51:51;;;;;;;6.32;1.60;;;;;;;;;;5060087;28;42639;-69
2023/12/28 09:54:19;;;;;;;11.07;2.35;;;;;;;;;;5066210;28;42697;-70
2023/12/28 09:56:49;;;;;;;14.43;2.95;;;;;;;;;;5066569;28;42456;-70
2023/12/28 09:59:17;;;;;;;8.07;2.25;;;;;;;;;;5061066;28;42244;-70
2023/12/28 10:01:46;;;;;;;9.40;1.95;;;;;;;;;;5053199;28;41366;-70
2023/12/28 10:04:14;;;;;;;5.18;1.60;;;;;;;;;;5061916;28;41747;-70
2023/12/28 10:06:42;;;;;;;14.25;2.50;;;;;;;;;;5060272;28;41701;-70
2023/12/28 10:09:10;;;;;;;5.03;1.67;;;;;;;;;;5064937;28;41012;-69
2023/12/28 10:11:41;;;;;;;5.22;1.80;;;;;;;;;;5067282;28;41700;-69
2023/12/28 10:14:11;;;;;;;8.27;2.38;;;;;;;;;;5055793;28;42204;-71
2023/12/28 10:16:40;;;;;;;10.65;2.35;;;;;;;;;;5048049;28;40526;-69
2023/12/28 10:19:08;;;;;;;9.77;2.05;;;;;;;;;;5064249;28;42910;-68
2023/12/28 10:21:38;;;;;;;13.23;2.20;;;;;;;;;;5060860;28;40986;-69
2023/12/28 10:24:06;;;;;;;14.68;2.85;;;;;;;;;;5054338;28;42615;-68
2023/12/28 10:26:33;;;;;;;10.70;1.95;;;;;;;;;;5050087;28;42879;-69
2023/12/28 10:29:02;;;;;;;6.13;1.73;;;;;;;;;;5050199;28;41979;-69
2023/12/28 10:31:32;;;;;;;9.15;1.88;;;;;;;;;;5050312;28;42683;-68
2023/12/28 10:34:02;;;;;;;8.05;1.90;;;;;;;;;;5060063;28;41223;-69
2023/12/28 10:36:32;;;;;;;7.35;1.70;;;;;;;;;;5063469;28;40501;-69
2023/12/28 10:39:00;;;;;;;10.15;1.75;;;;;;;;;;5064688;28;41681;-69
2023/12/28 10:41:29;;;;;;;12.85;2.30;;;;;;;;;;5064125;28;42263;-69
2023/12/28 10:43:59;;;;;;;10.35;3.03;;;;;;;;;;5067335;28;41581;-69
2023/12/28 10:46:28;;;;;;;9.05;1.98;;;;;;;;;;5066231;28;41574;-68
2023/12/28 10:48:58;;;;;;;14.63;3.05;;;;;;;;;;5066323;28;40892;-69
2023/12/28 10:51:28;;;;;;;13.98;2.70;;;;;;;;;;5060697;28;41445;-69
2023/12/28 10:53:59;;;;;;;8.63;1.65;;;;;;;;;;5061303;28;43111;-70
2023/12/28 10:56:29;;;;;;;8.82;1.88;;;;;;;;;;5057069;28;40776;-69
2023/12/28 10:59:03;;;;;;;10.60;2.38;;;;;;;;;;5064589;28;41464;-68
2023/12/28 11:01:33;;;;;;;8.27;1.88;;;;;;;;;;5061993;28;40527;-69
2023/12/28 11:04:03;;;;;;;10.20;2.45;;;;;;;;;;5064996;28;40789;-68
2023/12/28 11:06:31;;;;;;;16.92;2.67;;;;;;;;;;5057659;28;42129;-69
2023/12/28 11:09:00;;;;;;;8.70;2.13;;;;;;;;;;5058499;28;41967;-70
2023/12/28 11:11:28;;;;;;;11.35;2.20;;;;;;;;;;5039902;28;40049;-69
2023/12/28 11:13:56;;;;;;;9.13;2.67;;;;;;;;;;5062698;28;42748;-70
2023/12/28 11:16:24;;;;;;;9.73;2.00;;;;;;;;;;5061767;28;42026;-70
2023/12/28 11:18:53;;;;;;;17.38;2.40;;;;;;;;;;5060633;28;41755;-70
2023/12/28 11:21:23;;;;;;;6.47;1.95;;;;;;;;;;5060414;28;42340;-70
2023/12/28 11:23:51;;;;;;;12.35;2.55;;;;;;;;;;5062883;28;41349;-70
2023/12/28 11:26:19;;;;;;;6.45;1.63;;;;;;;;;;5062003;28;41564;-71
2023/12/28 11:28:47;;;;;;;9.35;2.42;;;;;;;;;;5058016;28;41364;-67
2023/12/28 11:31:15;;;;;;;14.05;2.97;;;;;;;;;;5055871;28;41507;-67
2023/12/28 11:33:44;;;;;;;10.30;1.90;;;;;;;;;;5062841;28;42085;-67
2023/12/28 11:36:13;;;;;;;8.15;2.20;;;;;;;;;;5060067;28;41890;-67
2023/12/28 11:38:42;;;;;;;9.43;2.55;;;;;;;;;;5058713;28;41888;-67
2023/12/28 11:41:10;;;;;;;11.10;2.47;;;;;;;;;;5062786;28;42797;-67
2023/12/28 11:43:38;;;;;;;11.25;1.95;;;;;;;;;;5064859;28;42344;-68
2023/12/28 11:46:07;;;;;;;13.25;3.25;;;;;;;;;;5064865;28;41746;-68
2023/12/28 11:48:35;;;;;;;12.20;2.65;;;;;;;;;;5063087;28;43785;-67
2023/12/28 11:51:03;;;;;;;11.98;2.55;;;;;;;;;;5057602;28;41925;-68
2023/12/28 11:53:31;;;;;;;9.75;2.40;;;;;;;;;;5048418;28;42377;-68
2023/12/28 11:56:06;;;;;;;8.88;2.53;;;;;;;;;;5049509;28;42074;-68
2023/12/28 11:58:34;;;;;;;10.10;2.03;;;;;;;;;;5054506;28;42123;-68
2023/12/28 12:01:03;;;;;;;12.63;2.88;;;;;;;;;;5054599;28;42039;-67
2023/12/28 12:03:31;;;;;;;9.82;2.35;;;;;;;;;;5057516;28;41036;-67
2023/12/28 12:05:59;;;;;;;11.93;2.53;;;;;;;;;;5047042;28;40574;-67
2023/12/28 12:08:27;;;;;;;12.75;2.72;;;;;;;;;;5061264;28;42425;-70
2023/12/28 12:11:03;;;;;;;12.73;3.25;;;;;;;;;;5070029;28;41394;-68
2023/12/28 12:13:33;;;;;;;19.15;3.30;;;;;;;;;;5050841;28;41609;-68
2023/12/28 12:16:05;;;;;;;12.15;2.38;;;;;;;;;;5044281;28;40711;-68
2023/12/28 12:18:34;;;;;;;11.20;2.05;;;;;;;;;;5068342;28;41641;-68
2023/12/28 12:21:02;;;;;;;11.85;2.17;;;;;;;;;;5070492;28;42601;-68
2023/12/28 12:23:31;;;;;;;8.52;2.00;;;;;;;;;;5069200;28;41927;-68
2023/12/28 12:25:58;;;;;;;8.15;2.38;;;;;;;;;;5082386;28;42234;-66
2023/12/28 12:28:26;;;;;;;16.52;2.42;;;;;;;;;;5061686;28;42840;-68
2023/12/28 12:30:56;;;;;;;9.80;2.58;;;;;;;;;;5065813;28;41222;-68
2023/12/28 12:33:24;;;;;;;18.73;2.83;;;;;;;;;;5063968;28;41948;-67
2023/12/28 12:35:53;;;;;;;13.20;2.53;;;;;;;;;;5062798;28;40922;-67
2023/12/28 12:38:21;;;;;;;11.70;2.22;;;;;;;;;;5064331;28;42216;-69
2023/12/28 12:40:51;;;;;;;10.02;2.17;;;;;;;;;;5057253;28;41858;-67
2023/12/28 12:43:20;;;;;;;9.60;2.38;;;;;;;;;;5067516;28;41279;-67
2023/12/28 12:45:48;;;;;;;11.05;3.05;;;;;;;;;;5062198;28;41480;-66
2023/12/28 12:48:18;;;;;;;10.10;2.13;;;;;;;;;;5063333;28;41657;-66
2023/12/28 12:50:46;;;;;;;8.60;2.03;;;;;;;;;;5066906;28;41886;-66
2023/12/28 12:53:14;;;;;;;6.50;2.80;;;;;;;;;;5065051;28;41694;-66
2023/12/28 12:55:43;;;;;;;8.73;1.83;;;;;;;;;;5068315;28;42418;-66
2023/12/28 12:58:12;;;;;;;8.32;2.13;;;;;;;;;;5067213;28;42064;-66
2023/12/28 13:00:40;;;;;;;8.00;2.30;;;;;;;;;;5058541;28;42030;-66
2023/12/28 13:03:08;;;;;;;10.63;2.28;;;;;;;;;;5061075;28;41075;-66
2023/12/28 13:05:38;;;;;;;10.30;2.30;;;;;;;;;;5055303;28;41626;-66
2023/12/28 13:08:06;;;;;;;7.07;2.53;;;;;;;;;;5068655;28;41906;-65
2023/12/28 13:10:35;;;;;;;15.55;2.67;;;;;;;;;;5061927;28;41499;-66
2023/12/28 13:13:03;;;;;;;12.95;2.38;;;;;;;;;;5066595;28;41629;-66
2023/12/28 13:15:31;;;;;;;9.57;2.17;;;;;;;;;;5053863;28;41711;-66
2023/12/28 13:17:59;;;;;;;12.57;1.92;;;;;;;;;;5064593;28;42901;-66
2023/12/28 13:20:27;;;;;;;7.78;2.58;;;;;;;;;;5063235;28;41914;-66
2023/12/28 13:22:56;;;;;;;9.70;2.80;;;;;;;;;;5064325;28;41364;-66
2023/12/28 13:25:25;;;;;;;11.77;2.88;;;;;;;;;;5067243;28;42400;-66
2023/12/28 13:27:53;;;;;;;6.78;1.95;;;;;;;;;;5064441;28;43164;-66
2023/12/28 13:30:21;;;;;;;6.65;1.90;;;;;;;;;;5063040;28;41447;-66
2023/12/28 13:32:50;;;;;;;10.93;2.45;;;;;;;;;;5055673;28;42319;-66
2023/12/28 13:35:18;;;;;;;12.15;2.70;;;;;;;;;;5056997;28;43170;-66
2023/12/28 13:37:46;;;;;;;8.35;2.00;;;;;;;;;;5059212;28;40782;-66
2023/12/28 13:40:16;;;;;;;9.82;2.45;;;;;;;;;;5066222;28;41593;-66
2023/12/28 13:42:46;;;;;;;7.78;2.92;;;;;;;;;;5056771;28;41275;-66
2023/12/28 13:45:15;;;;;;;13.43;3.05;;;;;;;;;;5064200;28;42364;-65
2023/12/28 13:47:43;;;;;;;10.20;2.83;;;;;;;;;;5064486;28;42104;-65
2023/12/28 13:50:11;;;;;;;8.90;2.70;;;;;;;;;;5063382;28;41333;-67
2023/12/28 13:52:39;;;;;;;11.52;2.63;;;;;;;;;;5064148;28;40553;-66
2023/12/28 13:55:07;;;;;;;14.02;3.97;;;;;;;;;;5066512;28;41691;-67
2023/12/28 13:57:36;;;;;;;11.15;2.65;;;;;;;;;;5066913;28;41397;-68
2023/12/28 14:00:05;;;;;;;9.73;2.40;;;;;;;;;;5058642;28;41862;-68
2023/12/28 14:02:41;;;;;;;8.10;2.63;;;;;;;;;;5057669;28;41944;-67
2023/12/28 14:05:09;;;;;;;7.03;1.88;;;;;;;;;;5063107;28;41995;-69
2023/12/28 14:07:37;;;;;;;9.75;2.58;;;;;;;;;;5055178;28;42817;-69
2023/12/28 14:10:06;;;;;;;12.95;2.35;;;;;;;;;;5058702;28;41658;-71
2023/12/28 14:12:34;;;;;;;11.70;2.00;;;;;;;;;;5064306;28;40327;-68
2023/12/28 14:15:03;;;;;;;5.57;2.00;;;;;;;;;;5058014;28;42012;-69
2023/12/28 14:17:35;;;;;;;7.75;2.60;;;;;;;;;;5064168;28;40727;-67
2023/12/28 14:20:06;;;;;;;8.85;2.97;;;;;;;;;;5062657;28;41476;-67
2023/12/28 14:22:34;;;;;;;8.98;2.30;;;;;;;;;;5066723;28;33243;-68
2023/12/28 14:25:03;;;;;;;6.68;2.60;;;;;;;;;;5065569;28;41423;-67
2023/12/28 14:27:31;;;;;;;7.00;2.20;;;;;;;;;;5066095;28;42048;-67
2023/12/28 14:30:03;;;;;;;6.38;1.90;;;;;;;;;;5067065;28;41521;-67
2023/12/28 14:32:33;;;;;;;8.25;2.03;;;;;;;;;;5056463;28;42336;-68
2023/12/28 14:35:01;;;;;;;6.78;2.00;;;;;;;;;;5057804;28;42624;-68
2023/12/28 14:37:29;;;;;;;9.27;2.10;;;;;;;;;;5076517;28;40572;-67
2023/12/28 14:39:57;;;;;;;8.82;2.20;;;;;;;;;;5060110;28;41559;-67
2023/12/28 14:42:25;;;;;;;12.23;2.00;;;;;;;;;;5067697;28;42418;-67
2023/12/28 14:44:53;;;;;;;11.25;2.75;;;;;;;;;;5053113;28;41772;-70
2023/12/28 14:47:21;;;;;;;7.82;2.55;;;;;;;;;;5064151;28;42904;-70